Time;durP1;ratioP1;P1;durP2;ratioP2;P2;SDS_P1;SDS_P2;PMS_P1;PMS_P2;Temp;Humidity;BMP_temperature;BMP_pressure;BME280_temperature;BME280_humidity;BME280_pressure;Samples;Min_cycle;Max_cycle;Signal;HPM_P1;HPM_P2
2023/09/02 00:01:07;;;;;;;2.83;1.35;;;;;;;21.19;53.89;99849.03;4509912;31;33125;-73
2023/09/02 00:03:35;;;;;;;5.20;1.60;;;;;;;21.18;53.81;99848.16;4510436;31;33589;-72
2023/09/02 00:06:03;;;;;;;3.28;1.60;;;;;;;21.09;54.06;99857.44;4511406;31;34113;-73
2023/09/02 00:08:30;;;;;;;3.12;1.75;;;;;;;21.03;54.27;99855.44;4508409;31;34326;-72
2023/09/02 00:10:58;;;;;;;7.85;1.95;;;;;;;21.01;54.45;99854.75;4503926;31;33027;-73
2023/09/02 00:13:25;;;;;;;3.65;2.00;;;;;;;20.90;54.83;99849.72;4496965;31;34687;-73
2023/09/02 00:15:53;;;;;;;1.60;1.10;;;;;;;20.99;54.64;99850.50;4504940;31;33871;-72
2023/09/02 00:18:21;;;;;;;3.05;1.60;;;;;;;20.97;54.81;99850.69;4507453;31;32345;-72
2023/09/02 00:20:48;;;;;;;2.80;1.35;;;;;;;20.97;54.93;99861.59;4508896;31;33383;-72
2023/09/02 00:23:16;;;;;;;2.28;1.30;;;;;;;21.00;54.78;99854.94;4509083;31;33419;-72
2023/09/02 00:25:45;;;;;;;2.70;1.48;;;;;;;21.03;54.68;99847.25;4510569;31;35014;-72
2023/09/02 00:28:12;;;;;;;4.22;1.85;;;;;;;20.99;54.59;99854.06;4510368;31;34268;-72
2023/09/02 00:30:40;;;;;;;2.50;1.35;;;;;;;20.97;54.84;99852.56;4508476;31;33160;-72
2023/09/02 00:33:07;;;;;;;3.03;1.70;;;;;;;20.96;54.96;99846.25;4508378;31;33513;-72
2023/09/02 00:35:35;;;;;;;2.95;1.42;;;;;;;20.93;55.14;99849.37;4508957;31;34485;-72
2023/09/02 00:38:03;;;;;;;1.90;1.48;;;;;;;20.86;55.26;99845.66;4510193;31;33968;-72
2023/09/02 00:40:31;;;;;;;2.60;0.93;;;;;;;20.93;55.03;99843.94;4510723;31;32942;-72
2023/09/02 00:43:00;;;;;;;3.20;1.95;;;;;;;20.89;55.27;99834.41;4509066;31;34980;-71
2023/09/02 00:45:28;;;;;;;2.80;1.52;;;;;;;20.75;55.67;99836.03;4508888;31;35194;-72
2023/09/02 00:47:59;;;;;;;2.47;1.50;;;;;;;20.80;55.59;99839.06;4492787;31;33370;-72
2023/09/02 00:50:27;;;;;;;2.65;1.55;;;;;;;20.85;55.55;99841.25;4509471;31;33092;-72
2023/09/02 00:52:55;;;;;;;2.45;1.52;;;;;;;20.81;55.68;99839.91;4505973;31;35272;-72
2023/09/02 00:55:23;;;;;;;2.70;1.30;;;;;;;20.78;55.63;99841.13;4510363;31;34180;-72
2023/09/02 00:57:50;;;;;;;2.60;1.62;;;;;;;20.80;55.54;99846.34;4509699;31;33388;-72
2023/09/02 01:00:18;;;;;;;2.20;1.62;;;;;;;20.76;55.66;99840.44;4483954;31;33227;-72
2023/09/02 01:02:46;;;;;;;3.75;2.10;;;;;;;20.78;55.44;99843.81;4497886;31;33672;-73
2023/09/02 01:05:15;;;;;;;3.47;1.87;;;;;;;20.83;55.19;99848.72;4497341;31;33993;-72
2023/09/02 01:07:43;;;;;;;2.95;1.73;;;;;;;20.78;55.35;99845.72;4498829;31;34503;-72
2023/09/02 01:10:11;;;;;;;2.90;1.58;;;;;;;20.75;55.50;99846.91;4494537;31;34075;-72
2023/09/02 01:12:39;;;;;;;1.77;1.25;;;;;;;20.78;55.19;99848.44;4499072;31;33599;-72
2023/09/02 01:15:08;;;;;;;3.47;1.87;;;;;;;20.79;55.22;99855.56;4499682;31;35099;-72
2023/09/02 01:17:35;;;;;;;2.72;1.48;;;;;;;20.77;55.32;99854.88;4499031;31;34480;-72
2023/09/02 01:20:05;;;;;;;2.75;1.87;;;;;;;20.75;55.38;99865.09;4496718;31;33186;-72
2023/09/02 01:22:48;;;;;;;7.45;1.77;;;;;;;20.74;55.40;99864.25;4497099;31;34632;-72
2023/09/02 01:25:40;;;;;;;3.50;1.75;;;;;;;20.68;55.28;99860.38;4499066;31;33739;-72
2023/09/02 01:28:11;;;;;;;2.37;1.37;;;;;;;20.70;55.21;99857.47;4449399;32;33479;-72
2023/09/02 01:30:39;;;;;;;2.83;1.50;;;;;;;20.57;55.20;99852.59;4419286;32;32981;-72
2023/09/02 01:33:08;;;;;;;3.53;1.23;;;;;;;20.62;55.31;99850.19;4391267;32;34039;-72
2023/09/02 01:35:38;;;;;;;3.53;1.77;;;;;;;20.68;55.28;99849.50;4418766;32;33492;-72
2023/09/02 01:38:06;;;;;;;4.97;2.00;;;;;;;20.72;55.42;99846.41;4418468;32;34220;-72
2023/09/02 01:40:34;;;;;;;3.67;1.75;;;;;;;20.74;55.44;99845.22;4409638;32;34407;-72
2023/09/02 01:43:03;;;;;;;4.30;2.22;;;;;;;20.74;55.54;99850.66;4418719;32;33550;-73
2023/09/02 01:45:34;;;;;;;2.80;1.52;;;;;;;20.72;55.46;99849.97;4409917;32;34700;-73
2023/09/02 01:48:03;;;;;;;3.30;1.73;;;;;;;20.77;55.28;99846.72;4404537;32;33347;-72
2023/09/02 01:50:32;;;;;;;2.15;1.48;;;;;;;20.76;55.34;99855.91;4416974;32;34442;-73
2023/09/02 01:53:01;;;;;;;2.90;1.67;;;;;;;20.72;55.58;99854.56;4411177;32;33997;-72
2023/09/02 01:55:29;;;;;;;3.22;2.00;;;;;;;20.64;55.97;99858.16;4402447;32;35277;-74
2023/09/02 01:57:57;;;;;;;2.62;1.62;;;;;;;20.59;56.03;99856.00;4414585;32;33168;-74
2023/09/02 02:00:25;;;;;;;2.05;1.40;;;;;;;20.49;56.51;99849.88;4403118;32;34429;-73
2023/09/02 02:02:54;;;;;;;2.40;1.25;;;;;;;20.41;56.90;99852.62;4447122;32;34611;-72
2023/09/02 02:05:37;;;;;;;3.80;1.92;;;;;;;20.37;56.98;99846.69;4469037;31;33868;-73
2023/09/02 02:08:11;;;;;;;2.90;1.48;;;;;;;20.33;57.01;99856.22;4498326;31;35222;-72
2023/09/02 02:10:39;;;;;;;3.15;1.77;;;;;;;20.28;57.05;99857.75;4480195;31;33318;-72
2023/09/02 02:13:07;;;;;;;4.05;1.85;;;;;;;20.35;56.92;99858.75;4492518;31;33750;-72
2023/09/02 02:15:35;;;;;;;3.50;1.75;;;;;;;20.32;56.84;99859.09;4497774;31;34925;-73
2023/09/02 02:18:03;;;;;;;1.70;1.20;;;;;;;20.32;56.50;99859.09;4485724;31;34949;-72
2023/09/02 02:20:39;;;;;;;2.20;1.35;;;;;;;20.32;56.23;99856.37;4498297;31;33308;-72
2023/09/02 02:23:06;;;;;;;;;;;;;;;20.30;56.19;99855.72;4488760;31;33671;-72
2023/09/02 02:25:34;;;;;;;3.67;1.77;;;;;;;20.29;56.29;99851.31;4492842;31;35041;-72
2023/09/02 02:28:04;;;;;;;2.53;1.30;;;;;;;20.17;56.73;99862.56;4495835;31;34835;-71
2023/09/02 02:30:32;;;;;;;2.37;1.55;;;;;;;20.09;57.14;99859.00;4497446;31;33363;-71
2023/09/02 02:33:00;;;;;;;6.55;2.90;;;;;;;20.02;57.50;99861.56;4497279;31;34262;-74
2023/09/02 02:35:31;;;;;;;2.80;1.35;;;;;;;19.98;57.55;99855.63;4495504;31;33913;-74
2023/09/02 02:37:59;;;;;;;3.05;1.83;;;;;;;19.81;58.01;99862.13;4497832;31;34520;-74
2023/09/02 02:40:27;;;;;;;2.80;1.73;;;;;;;19.86;57.87;99858.88;4497045;31;33176;-74
2023/09/02 02:42:55;;;;;;;2.35;1.52;;;;;;;19.96;57.46;99854.09;4498869;31;34659;-74
2023/09/02 02:45:23;;;;;;;3.53;1.40;;;;;;;19.96;57.48;99854.09;4496962;31;35270;-73
2023/09/02 02:47:50;;;;;;;3.85;1.70;;;;;;;19.96;57.50;99852.22;4496504;31;33398;-74
2023/09/02 02:50:18;;;;;;;4.28;1.90;;;;;;;20.00;57.46;99855.47;4498960;31;33145;-72
2023/09/02 02:52:45;;;;;;;4.05;2.22;;;;;;;20.01;57.43;99854.44;4494575;31;34633;-72
2023/09/02 02:55:13;;;;;;;3.37;1.87;;;;;;;19.96;57.63;99854.94;4497177;31;35151;-72
2023/09/02 02:57:41;;;;;;;3.42;1.75;;;;;;;19.98;57.67;99858.34;4498210;31;33316;-72
2023/09/02 03:00:10;;;;;;;2.80;1.62;;;;;;;19.93;57.85;99854.44;4498328;31;32373;-72
2023/09/02 03:02:38;;;;;;;2.92;1.65;;;;;;;19.93;57.90;99858.00;4495424;31;35823;-72
2023/09/02 03:05:06;;;;;;;2.37;1.45;;;;;;;20.00;57.66;99860.91;4498740;31;34030;-72
2023/09/02 03:07:34;;;;;;;4.45;1.48;;;;;;;20.00;57.68;99853.59;4497766;31;34832;-72
2023/09/02 03:10:01;;;;;;;3.25;1.85;;;;;;;20.04;57.62;99853.25;4496781;31;34074;-72
2023/09/02 03:12:29;;;;;;;4.32;1.58;;;;;;;20.06;57.50;99853.91;4497336;31;34036;-74
2023/09/02 03:14:58;;;;;;;3.53;1.85;;;;;;;20.07;57.34;99864.63;4495160;31;35246;-72
2023/09/02 03:17:27;;;;;;;2.67;2.00;;;;;;;20.11;57.19;99855.09;4498779;31;34505;-73
2023/09/02 03:19:54;;;;;;;3.53;1.77;;;;;;;20.15;57.13;99863.75;4495863;31;33993;-72
2023/09/02 03:22:22;;;;;;;4.15;1.90;;;;;;;20.12;57.10;99855.94;4495261;31;33964;-73
2023/09/02 03:24:54;;;;;;;3.78;2.00;;;;;;;20.18;56.90;99866.97;4497336;31;35095;-73
2023/09/02 03:27:22;;;;;;;4.40;2.30;;;;;;;20.22;56.70;99865.63;4496845;31;34542;-73
2023/09/02 03:29:51;;;;;;;4.37;1.87;;;;;;;20.22;56.85;99864.75;4496310;31;33269;-72
2023/09/02 03:32:20;;;;;;;2.97;1.83;;;;;;;20.26;56.94;99866.13;4495496;31;34619;-72
2023/09/02 03:34:48;;;;;;;2.15;1.50;;;;;;;20.30;56.89;99867.44;4490701;31;33811;-72
2023/09/02 03:37:15;;;;;;;4.68;2.20;;;;;;;20.30;56.93;99858.44;4490429;31;34225;-72
2023/09/02 03:39:43;;;;;;;3.62;1.60;;;;;;;20.22;57.25;99859.31;4495000;31;34634;-72
2023/09/02 03:42:11;;;;;;;2.90;1.80;;;;;;;20.26;57.05;99863.41;4488460;31;33997;-72
2023/09/02 03:44:38;;;;;;;2.72;1.58;;;;;;;20.25;57.06;99858.97;4490381;31;35217;-72
2023/09/02 03:47:06;;;;;;;3.40;1.95;;;;;;;20.25;57.03;99865.25;4496749;31;34490;-72
2023/09/02 03:49:34;;;;;;;2.80;1.75;;;;;;;20.24;56.89;99860.84;4497253;31;33239;-72
2023/09/02 03:52:01;;;;;;;3.25;2.10;;;;;;;20.23;56.70;99861.88;4492696;31;33705;-72
2023/09/02 03:54:29;;;;;;;4.68;2.58;;;;;;;20.21;56.66;99863.91;4488429;31;33494;-72
2023/09/02 03:56:58;;;;;;;2.35;1.35;;;;;;;20.18;56.82;99864.25;4498490;31;35141;-72
2023/09/02 03:59:25;;;;;;;3.87;2.08;;;;;;;20.08;57.20;99863.59;4495420;31;34526;-72
2023/09/02 04:01:53;;;;;;;2.47;1.40;;;;;;;20.11;57.16;99863.25;4498327;31;32916;-72
2023/09/02 04:04:21;;;;;;;3.15;1.80;;;;;;;20.02;57.53;99865.13;4497134;31;33921;-72
2023/09/02 04:06:49;;;;;;;1.75;1.27;;;;;;;19.93;57.80;99866.16;4497496;31;33744;-72
2023/09/02 04:09:16;;;;;;;2.92;1.48;;;;;;;20.03;57.64;99868.69;4497562;31;34210;-72
2023/09/02 04:11:44;;;;;;;3.25;1.77;;;;;;;20.08;57.62;99874.47;4496116;31;34752;-74
2023/09/02 04:14:12;;;;;;;3.80;2.05;;;;;;;20.10;57.57;99864.28;4488854;31;33963;-71
2023/09/02 04:16:39;;;;;;;4.10;1.62;;;;;;;20.14;57.42;99870.22;4496111;31;33803;-73
2023/09/02 04:19:08;;;;;;;5.78;3.28;;;;;;;20.12;57.46;99870.38;4498061;31;32892;-74
2023/09/02 04:21:36;;;;;;;3.30;1.50;;;;;;;20.12;57.48;99875.81;4497500;31;33884;-72
2023/09/02 04:24:03;;;;;;;4.47;2.08;;;;;;;20.15;57.34;99874.62;4497282;31;33856;-71
2023/09/02 04:26:32;;;;;;;3.35;1.67;;;;;;;20.18;57.05;99874.28;4498668;31;32292;-71
2023/09/02 04:29:00;;;;;;;4.03;2.37;;;;;;;20.19;57.11;99886.81;4496099;31;33153;-70
2023/09/02 04:31:28;;;;;;;4.43;2.05;;;;;;;20.20;57.12;99883.09;4498487;31;33702;-71
2023/09/02 04:33:56;;;;;;;2.47;1.35;;;;;;;20.19;57.19;99887.69;4498544;31;34030;-71
2023/09/02 04:36:24;;;;;;;2.78;1.75;;;;;;;20.20;57.11;99888.53;4499299;31;33697;-71
2023/09/02 04:38:52;;;;;;;3.17;1.98;;;;;;;20.19;57.04;99887.69;4497434;31;32891;-70
2023/09/02 04:41:20;;;;;;;6.18;3.20;;;;;;;20.21;57.08;99884.78;4499947;31;33467;-71
2023/09/02 04:43:48;;;;;;;2.37;1.25;;;;;;;20.25;57.12;99889.69;4499372;31;34034;-72
2023/09/02 04:46:16;;;;;;;3.00;1.60;;;;;;;20.31;57.06;99895.47;4497405;31;34746;-72
2023/09/02 04:48:46;;;;;;;3.30;2.05;;;;;;;20.33;57.14;99901.59;4495682;31;33290;-73
2023/09/02 04:51:16;;;;;;;6.18;2.12;;;;;;;20.35;57.25;99894.09;4500482;31;33305;-73
2023/09/02 04:53:43;;;;;;;3.97;2.12;;;;;;;20.42;57.34;99895.13;4498290;31;35342;-69
2023/09/02 04:56:11;;;;;;;4.82;1.60;;;;;;;20.48;57.24;99895.25;4486719;31;33602;-70
2023/09/02 04:58:39;;;;;;;3.22;1.90;;;;;;;20.56;57.20;99897.13;4494094;31;33227;-72
2023/09/02 05:01:11;;;;;;;4.07;2.00;;;;;;;20.64;57.12;99893.50;4494334;31;34764;-72
2023/09/02 05:03:39;;;;;;;3.33;1.85;;;;;;;20.71;57.02;99894.53;4499457;31;33978;-72
2023/09/02 05:06:10;;;;;;;5.85;1.87;;;;;;;20.78;56.90;99887.34;4499872;31;34442;-73
2023/09/02 05:08:38;;;;;;;4.40;2.35;;;;;;;20.84;56.90;99893.97;4498644;31;34110;-72
2023/09/02 05:11:07;;;;;;;2.65;1.58;;;;;;;20.93;56.75;99901.06;4500114;31;33836;-75
2023/09/02 05:13:35;;;;;;;10.25;2.00;;;;;;;21.23;56.11;99904.78;4495239;31;33998;-72
2023/09/02 05:16:03;;;;;;;2.15;1.50;;;;;;;22.02;53.90;99907.25;4492763;31;33846;-72
2023/09/02 05:18:30;;;;;;;4.75;2.65;;;;;;;22.32;53.10;99900.84;4493745;31;32024;-71
2023/09/02 05:20:59;;;;;;;6.72;2.47;;;;;;;22.66;52.16;99898.59;4487573;31;34955;-71
2023/09/02 05:23:26;;;;;;;3.80;1.85;;;;;;;22.64;52.07;99904.25;4500346;31;35210;-71
2023/09/02 05:25:55;;;;;;;3.50;1.85;;;;;;;22.64;52.23;99903.41;4489481;31;34426;-71
2023/09/02 05:28:24;;;;;;;4.00;2.08;;;;;;;22.59;52.78;99905.84;4498675;31;33107;-71
2023/09/02 05:30:52;;;;;;;8.45;1.98;;;;;;;22.58;52.97;99902.28;4499609;31;33915;-71
2023/09/02 05:33:20;;;;;;;3.95;2.28;;;;;;;22.56;53.38;99901.59;4496956;31;34076;-71
2023/09/02 05:35:48;;;;;;;7.85;4.22;;;;;;;22.61;53.30;99901.06;4497094;31;34423;-71
2023/09/02 05:38:16;;;;;;;3.92;2.20;;;;;;;22.72;53.28;99906.03;4499674;31;34314;-72
2023/09/02 05:40:43;;;;;;;6.07;2.85;;;;;;;22.64;53.46;99896.06;4498883;31;34823;-72
2023/09/02 05:43:11;;;;;;;4.60;2.55;;;;;;;22.89;53.14;99906.66;4497511;31;33766;-72
2023/09/02 05:45:39;;;;;;;5.82;2.95;;;;;;;23.53;51.37;99903.22;4500273;31;33702;-72
2023/09/02 05:48:07;;;;;;;4.45;2.42;;;;;;;23.63;51.09;99906.47;4497200;31;32845;-73
2023/09/02 05:50:35;;;;;;;4.43;2.35;;;;;;;23.67;51.43;99907.78;4499884;31;33741;-74
2023/09/02 05:53:03;;;;;;;10.55;3.30;;;;;;;24.14;50.60;99906.28;4499409;31;34128;-72
2023/09/02 05:55:32;;;;;;;4.35;2.72;;;;;;;24.80;48.94;99900.44;4498440;31;35011;-70
2023/09/02 05:58:00;;;;;;;7.07;3.60;;;;;;;25.09;48.31;99894.66;4499587;31;33134;-74
2023/09/02 06:00:27;;;;;;;6.25;2.95;;;;;;;25.07;47.41;99898.62;4494897;31;34718;-74
2023/09/02 06:02:55;;;;;;;5.43;3.17;;;;;;;24.67;48.21;99898.47;4497231;31;33776;-73
2023/09/02 06:05:23;;;;;;;5.18;3.20;;;;;;;24.36;49.46;99896.97;4496702;31;33622;-76
2023/09/02 06:07:50;;;;;;;7.85;3.78;;;;;;;24.26;50.31;99901.13;4498712;31;33102;-74
2023/09/02 06:10:18;;;;;;;6.00;3.75;;;;;;;23.42;51.63;99913.62;4496642;31;34440;-73
2023/09/02 06:12:46;;;;;;;8.80;4.07;;;;;;;23.77;51.44;99912.94;4489644;31;33865;-73
2023/09/02 06:15:13;;;;;;;6.97;3.60;;;;;;;23.76;51.56;99909.37;4484576;31;34521;-73
2023/09/02 06:17:41;;;;;;;7.45;3.92;;;;;;;23.67;52.15;99902.31;4489441;31;34156;-73
2023/09/02 06:20:09;;;;;;;7.93;4.30;;;;;;;23.76;52.16;99903.06;4495835;31;33680;-73
2023/09/02 06:22:36;;;;;;;5.87;3.45;;;;;;;23.51;52.67;99913.50;4498878;31;35027;-73
2023/09/02 06:25:05;;;;;;;8.10;4.20;;;;;;;23.54;53.15;99918.56;4497782;31;34566;-73
2023/09/02 06:27:33;;;;;;;9.38;5.12;;;;;;;23.69;53.24;99912.03;4497413;31;34614;-73
2023/09/02 06:30:00;;;;;;;5.47;3.22;;;;;;;23.64;53.34;99919.94;4495218;31;34852;-73
2023/09/02 06:32:28;;;;;;;6.53;3.97;;;;;;;23.68;53.21;99923.13;4496652;31;34944;-74
2023/09/02 06:34:57;;;;;;;6.75;4.07;;;;;;;23.62;53.15;99924.75;4498729;31;34835;-74
2023/09/02 06:37:28;;;;;;;8.40;5.12;;;;;;;23.80;52.91;99921.59;4498209;31;33066;-74
2023/09/02 06:39:57;;;;;;;8.05;3.87;;;;;;;23.80;53.23;99924.31;4493331;31;34030;-74
2023/09/02 06:42:24;;;;;;;5.72;3.75;;;;;;;23.90;53.53;99924.81;4491908;31;34748;-73
2023/09/02 06:44:53;;;;;;;8.85;4.97;;;;;;;23.98;53.53;99929.34;4499090;31;33709;-74
2023/09/02 06:47:21;;;;;;;8.40;5.28;;;;;;;23.87;52.86;99930.69;4496244;31;34110;-74
2023/09/02 06:49:49;;;;;;;7.18;4.78;;;;;;;24.23;51.93;99932.44;4489281;31;34081;-74
2023/09/02 06:52:16;;;;;;;7.40;4.35;;;;;;;24.09;52.24;99926.03;4491557;31;35260;-74
2023/09/02 06:54:48;;;;;;;11.63;4.65;;;;;;;24.31;52.13;99929.59;4493259;31;34863;-74
2023/09/02 06:57:16;;;;;;;8.07;4.57;;;;;;;24.20;52.83;99932.84;4498365;31;33146;-74
2023/09/02 06:59:43;;;;;;;6.90;4.20;;;;;;;24.31;51.46;99937.78;4497536;31;34004;-74
2023/09/02 07:02:11;;;;;;;5.90;3.60;;;;;;;24.38;51.64;99932.34;4494261;31;33876;-74
2023/09/02 07:04:39;;;;;;;8.13;4.12;;;;;;;24.40;51.66;99946.69;4497483;31;34806;-74
2023/09/02 07:07:06;;;;;;;6.10;3.37;;;;;;;24.48;51.95;99934.78;4499008;31;34459;-74
2023/09/02 07:09:34;;;;;;;9.45;5.62;;;;;;;24.55;51.89;99939.22;4498302;31;34632;-74
2023/09/02 07:12:02;;;;;;;7.70;4.72;;;;;;;24.36;51.67;99929.81;4496592;31;33996;-75
2023/09/02 07:14:30;;;;;;;6.07;3.85;;;;;;;24.46;51.62;99939.59;4485481;31;33532;-74
2023/09/02 07:16:58;;;;;;;6.53;3.42;;;;;;;24.60;51.24;99935.91;4496162;31;33485;-74
2023/09/02 07:19:26;;;;;;;5.78;3.17;;;;;;;24.64;52.19;99931.72;4486535;31;33700;-74
2023/09/02 07:21:56;;;;;;;9.40;4.60;;;;;;;24.72;52.24;99938.91;4492513;31;34155;-74
2023/09/02 07:24:24;;;;;;;5.87;4.07;;;;;;;24.62;51.96;99942.88;4488896;31;33456;-74
2023/09/02 07:26:52;;;;;;;8.45;4.65;;;;;;;24.48;52.49;99948.44;4498514;31;33028;-74
2023/09/02 07:29:19;;;;;;;8.02;3.87;;;;;;;24.86;51.40;99943.41;4494475;31;33709;-74
2023/09/02 07:31:47;;;;;;;6.47;3.37;;;;;;;24.93;50.80;99937.97;4495376;31;34652;-74
2023/09/02 07:34:15;;;;;;;6.12;3.05;;;;;;;24.96;50.45;99943.88;4498221;31;33983;-74
2023/09/02 07:36:43;;;;;;;9.90;3.97;;;;;;;25.05;50.64;99939.94;4481824;31;32815;-74
2023/09/02 07:39:12;;;;;;;7.43;3.08;;;;;;;25.08;50.23;99939.53;4495326;31;33673;-74
2023/09/02 07:41:40;;;;;;;6.53;3.45;;;;;;;25.25;49.99;99934.53;4489575;31;34147;-74
2023/09/02 07:44:08;;;;;;;5.80;3.05;;;;;;;25.39;50.33;99940.91;4497182;31;33972;-74
2023/09/02 07:46:36;;;;;;;5.60;3.33;;;;;;;25.59;49.82;99945.63;4495745;31;33119;-74
2023/09/02 07:49:04;;;;;;;6.87;2.75;;;;;;;25.64;50.25;99941.19;4496650;31;34986;-74
2023/09/02 07:51:31;;;;;;;8.18;3.08;;;;;;;25.73;50.04;99942.69;4483574;31;33792;-74
2023/09/02 07:53:59;;;;;;;8.50;2.42;;;;;;;25.72;48.94;99946.47;4497122;31;33421;-74
2023/09/02 07:56:27;;;;;;;5.15;2.67;;;;;;;25.50;48.65;99947.69;4498643;31;33486;-74
2023/09/02 07:58:54;;;;;;;4.57;2.28;;;;;;;25.85;47.61;99950.34;4496455;31;34681;-75
2023/09/02 08:01:22;;;;;;;3.90;1.90;;;;;;;26.06;46.21;99952.84;4491882;31;33061;-74
2023/09/02 08:03:50;;;;;;;4.85;2.37;;;;;;;25.97;46.26;99954.13;4496190;31;34214;-74
2023/09/02 08:06:17;;;;;;;3.12;1.98;;;;;;;26.25;46.02;99954.75;4495047;31;33043;-74
2023/09/02 08:08:45;;;;;;;4.22;2.42;;;;;;;25.93;46.40;99956.44;4488846;31;33437;-74
2023/09/02 08:11:17;;;;;;;5.87;2.17;;;;;;;26.31;45.71;99949.47;4497260;31;34106;-74
2023/09/02 08:13:45;;;;;;;5.35;2.15;;;;;;;26.06;46.10;99950.13;4498716;31;32794;-74
2023/09/02 08:16:13;;;;;;;6.90;2.25;;;;;;;26.19;46.54;99952.84;4493029;31;34573;-74
2023/09/02 08:18:40;;;;;;;5.30;2.62;;;;;;;26.16;45.86;99958.78;4489999;31;33656;-74
2023/09/02 08:21:09;;;;;;;5.32;2.12;;;;;;;25.52;47.13;99954.66;4487407;31;35155;-74
2023/09/02 08:23:38;;;;;;;5.10;2.75;;;;;;;25.99;45.95;99960.25;4489465;31;33493;-74
2023/09/02 08:26:12;;;;;;;5.43;2.35;;;;;;;26.20;45.83;99954.56;4496015;31;33960;-74
2023/09/02 08:28:41;;;;;;;9.30;3.35;;;;;;;26.39;45.09;99957.50;4496611;31;33740;-73
2023/09/02 08:31:11;;;;;;;4.95;2.40;;;;;;;26.55;45.31;99956.22;4497795;31;33675;-74
2023/09/02 08:33:39;;;;;;;4.62;2.80;;;;;;;26.06;47.16;99958.34;4492863;31;34579;-74
2023/09/02 08:36:14;;;;;;;7.75;2.53;;;;;;;26.44;46.59;99965.94;4497274;31;33862;-73
2023/09/02 08:38:42;;;;;;;3.00;1.98;;;;;;;26.23;46.70;99958.78;4495087;31;34233;-76
2023/09/02 08:41:16;;;;;;;4.40;2.33;;;;;;;26.22;47.40;99968.06;4487215;31;32037;-74
2023/09/02 08:43:44;;;;;;;7.78;3.55;;;;;;;26.60;46.48;99967.41;4493507;31;34865;-74
2023/09/02 08:46:12;;;;;;;5.53;2.70;;;;;;;26.83;45.79;99966.94;4491276;31;33361;-74
2023/09/02 08:48:42;;;;;;;5.03;2.12;;;;;;;26.89;45.88;99969.66;4482318;31;35112;-74
2023/09/02 08:51:10;;;;;;;4.95;2.33;;;;;;;26.70;46.28;99968.66;4495016;31;34736;-72
2023/09/02 08:53:38;;;;;;;4.47;2.45;;;;;;;26.82;46.53;99968.84;4491864;31;34536;-72
2023/09/02 08:56:10;;;;;;;5.28;2.53;;;;;;;26.90;46.11;99967.75;4490491;31;33247;-74
2023/09/02 08:58:39;;;;;;;4.18;2.12;;;;;;;26.61;46.60;99963.59;4489517;31;35268;-75
2023/09/02 09:01:07;;;;;;;5.10;2.25;;;;;;;27.16;45.03;99962.22;4488143;31;34946;-75
2023/09/02 09:03:41;;;;;;;4.45;2.28;;;;;;;27.14;45.70;99975.31;4482856;31;34869;-74
2023/09/02 09:06:09;;;;;;;5.80;2.60;;;;;;;26.24;46.75;99966.78;4470369;31;32260;-74
2023/09/02 09:08:37;;;;;;;4.80;2.47;;;;;;;26.66;46.13;99972.91;4465818;31;33522;-74
2023/09/02 09:11:06;;;;;;;6.82;2.62;;;;;;;26.62;46.43;99966.16;4460363;31;34058;-73
2023/09/02 09:13:35;;;;;;;5.32;2.65;;;;;;;26.95;45.66;99960.56;4488426;31;33483;-73
2023/09/02 09:16:03;;;;;;;4.47;2.20;;;;;;;26.93;46.00;99968.19;4463126;31;34150;-72
2023/09/02 09:18:30;;;;;;;5.28;2.37;;;;;;;27.14;45.30;99960.75;4475631;31;33946;-74
2023/09/02 09:20:58;;;;;;;4.85;2.08;;;;;;;27.04;45.94;99957.59;4476713;31;34064;-73
2023/09/02 09:23:26;;;;;;;5.85;2.33;;;;;;;27.20;46.35;99965.38;4476956;31;33746;-72
2023/09/02 09:25:54;;;;;;;5.62;2.55;;;;;;;26.98;45.20;99961.22;4476835;31;34223;-74
2023/09/02 09:28:22;;;;;;;5.43;2.85;;;;;;;27.10;45.80;99968.56;4476645;31;34009;-74
2023/09/02 09:30:49;;;;;;;9.05;2.55;;;;;;;27.48;45.53;99972.41;4466635;31;34147;-74
2023/09/02 09:33:18;;;;;;;7.97;2.30;;;;;;;27.49;45.04;99969.47;4477793;31;34320;-73
2023/09/02 09:35:46;;;;;;;4.75;1.92;;;;;;;27.43;44.30;99975.00;4477998;31;33234;-74
2023/09/02 09:38:14;;;;;;;5.78;2.50;;;;;;;27.79;44.18;99963.37;4475322;31;33200;-74
2023/09/02 09:40:41;;;;;;;5.47;2.25;;;;;;;27.89;44.02;99960.16;4477319;31;33622;-72
2023/09/02 09:43:16;;;;;;;4.70;2.15;;;;;;;27.99;44.29;99966.00;4482120;31;32030;-73
2023/09/02 09:45:50;;;;;;;4.82;2.28;;;;;;;28.21;43.86;99966.47;4490156;31;34225;-74
2023/09/02 09:48:18;;;;;;;5.87;2.10;;;;;;;28.22;43.75;99968.13;4484817;31;33728;-74
2023/09/02 09:50:45;;;;;;;3.17;1.67;;;;;;;27.86;43.09;99961.44;4486715;31;33676;-73
2023/09/02 09:53:13;;;;;;;5.15;1.55;;;;;;;28.43;42.04;99965.03;4484982;31;33492;-73
2023/09/02 09:55:41;;;;;;;4.93;1.85;;;;;;;28.66;42.02;99967.12;4488988;31;33229;-75
2023/09/02 09:58:09;;;;;;;3.03;1.70;;;;;;;28.80;41.25;99965.09;4487162;31;32661;-75
2023/09/02 10:00:37;;;;;;;5.07;2.12;;;;;;;28.50;41.91;99967.69;4498120;31;34286;-75
2023/09/02 10:03:06;;;;;;;4.40;2.10;;;;;;;28.95;40.80;99962.78;4495881;31;35268;-75
2023/09/02 10:05:33;;;;;;;7.62;2.37;;;;;;;28.39;42.50;99963.75;4495213;31;34187;-75
2023/09/02 10:08:03;;;;;;;5.10;2.10;;;;;;;28.40;42.20;99957.22;4493704;31;34680;-74
2023/09/02 10:10:34;;;;;;;3.90;2.25;;;;;;;28.15;42.61;99961.84;4495490;31;34794;-75
2023/09/02 10:13:02;;;;;;;5.40;2.28;;;;;;;28.52;40.98;99966.41;4462399;32;33594;-75
2023/09/02 10:15:31;;;;;;;3.97;1.65;;;;;;;28.36;41.35;99958.69;4464176;32;33953;-75
2023/09/02 10:18:01;;;;;;;5.07;1.75;;;;;;;28.87;40.23;99957.59;4460634;32;35026;-75
2023/09/02 10:20:30;;;;;;;7.12;2.03;;;;;;;29.13;39.97;99963.87;4463862;32;35504;-75
2023/09/02 10:23:06;;;;;;;3.72;1.77;;;;;;;29.47;39.10;99960.47;4447758;32;33237;-75
2023/09/02 10:26:08;;;;;;;3.83;2.03;;;;;;;28.96;40.11;99952.63;4448637;32;33956;-75
2023/09/02 10:28:40;;;;;;;5.75;2.08;;;;;;;29.46;37.72;99953.25;4442305;32;33693;-75
2023/09/02 10:31:12;;;;;;;5.45;2.40;;;;;;;29.42;37.80;99952.03;4440269;32;34841;-74
2023/09/02 10:34:25;;;;;;;4.97;2.05;;;;;;;29.52;38.42;99954.25;4442246;32;33423;-73
2023/09/02 10:36:56;;;;;;;5.15;2.10;;;;;;;29.73;38.23;99952.91;4380698;32;32865;-72
2023/09/02 10:39:35;;;;;;;3.95;1.85;;;;;;;29.82;38.19;99950.66;4381142;32;34538;-72
2023/09/02 10:42:03;;;;;;;5.07;1.77;;;;;;;28.73;39.49;99947.75;4378321;32;33661;-72
2023/09/02 10:44:31;;;;;;;3.03;1.60;;;;;;;29.39;38.74;99951.66;4396627;32;34658;-71
2023/09/02 10:46:59;;;;;;;6.60;3.70;;;;;;;29.97;38.68;99941.94;4361489;32;34309;-73
2023/09/02 10:49:27;;;;;;;3.92;2.05;;;;;;;29.87;37.66;99939.75;4359461;32;33540;-73
2023/09/02 10:51:55;;;;;;;6.18;2.08;;;;;;;29.89;38.56;99943.13;4365392;32;33465;-72
2023/09/02 10:54:23;;;;;;;7.28;1.85;;;;;;;29.95;38.54;99947.66;4387582;32;33643;-72
2023/09/02 10:56:51;;;;;;;3.55;1.65;;;;;;;30.28;37.07;99933.37;4396550;32;34430;-73
2023/09/02 10:59:29;;;;;;;5.45;2.03;;;;;;;29.67;38.53;99934.56;4394807;32;34948;-73
2023/09/02 11:01:57;;;;;;;4.65;1.83;;;;;;;29.75;37.24;99942.47;4393535;32;34025;-73
2023/09/02 11:04:40;;;;;;;5.28;2.28;;;;;;;30.12;37.88;99942.31;4392794;32;33389;-73
2023/09/02 11:07:20;;;;;;;4.45;1.67;;;;;;;30.21;37.09;99938.16;4392381;32;31816;-73
2023/09/02 11:09:54;;;;;;;3.65;1.52;;;;;;;30.78;35.43;99946.69;4389461;32;33404;-73
2023/09/02 11:12:22;;;;;;;4.15;1.95;;;;;;;30.66;35.91;99945.84;4422973;32;34451;-71
2023/09/02 11:15:08;;;;;;;3.90;2.00;;;;;;;29.69;37.09;99947.00;4457883;32;35047;-72
2023/09/02 11:17:40;;;;;;;2.65;1.73;;;;;;;29.56;37.00;99952.69;4454115;32;34067;-72
2023/09/02 11:20:13;;;;;;;4.65;1.95;;;;;;;29.88;37.57;99946.94;4447481;32;34867;-72
2023/09/02 11:23:04;;;;;;;3.42;1.55;;;;;;;30.24;36.39;99950.63;4451346;32;33489;-72
2023/09/02 11:25:41;;;;;;;5.80;2.35;;;;;;;30.52;35.55;99950.75;4478027;31;34580;-71
2023/09/02 11:28:25;;;;;;;3.72;1.92;;;;;;;30.35;35.74;99950.66;4484171;31;34544;-72
2023/09/02 11:31:03;;;;;;;3.73;1.83;;;;;;;30.82;34.61;99952.59;4487923;31;32940;-72
2023/09/02 11:33:32;;;;;;;3.75;1.80;;;;;;;30.53;35.40;99948.84;4485458;31;35134;-72
2023/09/02 11:36:05;;;;;;;5.60;1.92;;;;;;;30.58;35.65;99943.44;4480551;31;32627;-72
2023/09/02 11:38:34;;;;;;;4.47;2.33;;;;;;;30.57;36.44;99947.28;4484190;31;34461;-72
2023/09/02 11:41:02;;;;;;;4.20;1.87;;;;;;;29.59;37.06;99956.91;4486211;31;33401;-72
2023/09/02 11:43:34;;;;;;;3.58;1.73;;;;;;;29.43;36.73;99948.19;4482711;31;32621;-71